createdAt,value
2023-05-06T00:02:21.884Z,99809.22
2023-05-06T00:04:49.607Z,99819.41
2023-05-06T00:07:18.630Z,99818.75
2023-05-06T00:09:46.375Z,99810.22
2023-05-06T00:12:13.964Z,99805.34
2023-05-06T00:14:41.752Z,99803.16
2023-05-06T00:17:10.611Z,99797.38
2023-05-06T00:19:38.965Z,99794.53
2023-05-06T00:22:06.660Z,99791.44
2023-05-06T00:24:35.974Z,99795.00
2023-05-06T00:27:03.856Z,99787.38
2023-05-06T00:29:31.526Z,99786.94
2023-05-06T00:31:59.572Z,99783.53
2023-05-06T00:34:27.450Z,99792.88
2023-05-06T00:36:55.142Z,99786.56
2023-05-06T00:39:22.809Z,99784.81
2023-05-06T00:41:52.694Z,99787.69
2023-05-06T00:44:20.343Z,99786.56
2023-05-06T00:46:48.151Z,99787.69
2023-05-06T00:49:16.069Z,99790.69
2023-05-06T00:51:43.828Z,99786.38
2023-05-06T00:54:12.027Z,99793.34
2023-05-06T00:56:40.237Z,99796.41
2023-05-06T00:59:09.282Z,99791.91
2023-05-06T01:01:37.658Z,99788.13
2023-05-06T01:04:07.976Z,99789.16
2023-05-06T01:06:43.376Z,99790.34
2023-05-06T01:09:20.494Z,99781.81
2023-05-06T01:11:52.088Z,99785.47
2023-05-06T01:14:30.157Z,99784.13
2023-05-06T01:17:04.455Z,99782.47
2023-05-06T01:19:41.900Z,99786.13
2023-05-06T01:22:11.679Z,99785.47
2023-05-06T01:24:41.949Z,99785.94
2023-05-06T01:27:10.853Z,99782.66
2023-05-06T01:29:40.482Z,99784.59
2023-05-06T01:32:37.329Z,99786.78
2023-05-06T01:35:16.549Z,99783.28
2023-05-06T01:37:48.967Z,99792.63
2023-05-06T01:40:18.941Z,99795.66
2023-05-06T01:42:49.233Z,99791.53
2023-05-06T01:45:19.400Z,99799.69
2023-05-06T01:47:48.068Z,99809.03
2023-05-06T01:50:16.568Z,99807.81
2023-05-06T01:52:44.241Z,99809.41
2023-05-06T01:55:12.129Z,99810.13
2023-05-06T01:57:41.165Z,99806.84
2023-05-06T02:00:10.206Z,99816.81
2023-05-06T02:02:38.064Z,99807.13
2023-05-06T02:05:06.737Z,99819.31
2023-05-06T02:07:34.599Z,99814.44
2023-05-06T02:10:02.340Z,99815.19
2023-05-06T02:12:30.066Z,99820.13
2023-05-06T02:14:59.500Z,99818.41
2023-05-06T02:17:27.335Z,99814.00
2023-05-06T02:19:55.115Z,99821.50
2023-05-06T02:22:22.794Z,99818.47
2023-05-06T02:24:50.480Z,99822.59
2023-05-06T02:27:18.172Z,99818.84
2023-05-06T02:29:46.098Z,99810.59
2023-05-06T02:32:15.095Z,99806.75
2023-05-06T02:34:42.826Z,99807.84
2023-05-06T02:37:10.841Z,99804.44
2023-05-06T02:39:38.549Z,99797.56
2023-05-06T02:42:07.120Z,99800.06
2023-05-06T02:44:34.808Z,99791.00
2023-05-06T02:47:02.422Z,99787.69
2023-05-06T02:49:31.405Z,99792.72
2023-05-06T02:51:59.161Z,99792.63
2023-05-06T02:54:27.615Z,99788.22
2023-05-06T02:56:55.371Z,99790.72
2023-05-06T02:59:23.183Z,99783.47
2023-05-06T03:01:50.874Z,99787.78
2023-05-06T03:04:18.520Z,99785.69
2023-05-06T03:06:47.563Z,99795.38
2023-05-06T03:09:15.845Z,99786.66
2023-05-06T03:11:43.746Z,99785.75
2023-05-06T03:14:11.403Z,99791.78
2023-05-06T03:16:39.376Z,99788.50
2023-05-06T03:19:07.141Z,99790.06
2023-05-06T03:21:34.865Z,99778.16
2023-05-06T03:24:04.278Z,99782.53
2023-05-06T03:26:31.995Z,99783.56
2023-05-06T03:28:59.650Z,99782.00
2023-05-06T03:31:27.409Z,99794.38
2023-05-06T03:33:55.147Z,99785.63
2023-05-06T03:36:23.845Z,99782.78
2023-05-06T03:38:51.428Z,99778.06
2023-05-06T03:41:21.499Z,99785.75
2023-05-06T03:43:49.152Z,99789.41
2023-05-06T03:46:16.987Z,99790.84
2023-05-06T03:48:44.649Z,99793.06
2023-05-06T03:51:12.472Z,99791.72
2023-05-06T03:53:40.219Z,99793.16
2023-05-06T03:56:08.660Z,99799.03
2023-05-06T03:58:37.814Z,99798.84
2023-05-06T04:01:05.881Z,99794.97
2023-05-06T04:03:33.873Z,99801.09
2023-05-06T04:06:01.724Z,99809.25
2023-05-06T04:08:29.347Z,99797.34
2023-05-06T04:10:57.054Z,99804.63
2023-05-06T04:13:24.800Z,99810.53
2023-05-06T04:15:54.199Z,99803.34
2023-05-06T04:18:22.253Z,99802.34
2023-05-06T04:20:50.270Z,99804.56
2023-05-06T04:23:18.203Z,99810.44
2023-05-06T04:25:48.613Z,99814.31
2023-05-06T04:28:17.613Z,99814.97
2023-05-06T04:30:45.474Z,99816.63
2023-05-06T04:33:14.685Z,99822.13
2023-05-06T04:35:42.743Z,99827.16
2023-05-06T04:38:10.400Z,99825.41
2023-05-06T04:40:40.631Z,99827.28
2023-05-06T04:43:08.277Z,99823.69
2023-05-06T04:45:37.776Z,99830.06
2023-05-06T04:48:06.242Z,99835.13
2023-05-06T04:50:35.329Z,99826.34
2023-05-06T04:53:03.102Z,99830.09
2023-05-06T04:55:30.838Z,99828.78
2023-05-06T04:57:58.599Z,99836.84
2023-05-06T05:00:27.511Z,99832.84
2023-05-06T05:02:55.264Z,99833.59
2023-05-06T05:05:23.045Z,99839.34
2023-05-06T05:07:52.212Z,99837.97
2023-05-06T05:10:20.164Z,99844.56
2023-05-06T05:12:47.872Z,99845.31
2023-05-06T05:15:15.659Z,99848.63
2023-05-06T05:17:43.368Z,99846.91
2023-05-06T05:20:11.917Z,99849.09
2023-05-06T05:22:39.789Z,99847.16
2023-05-06T05:25:09.857Z,99848.44
2023-05-06T05:27:37.906Z,99849.16
2023-05-06T05:30:07.357Z,99856.06
2023-05-06T05:32:35.054Z,99850.41
2023-05-06T05:35:02.722Z,99852.47
2023-05-06T05:37:31.244Z,99853.50
2023-05-06T05:39:58.974Z,99857.53
2023-05-06T05:42:28.081Z,99861.09
2023-05-06T05:44:55.766Z,99859.81
2023-05-06T05:47:49.177Z,99853.91
2023-05-06T05:50:16.937Z,99856.22
2023-05-06T05:52:44.614Z,99857.66
2023-05-06T05:55:12.453Z,99855.25
2023-05-06T05:57:41.436Z,99858.34
2023-05-06T06:00:12.829Z,99863.03
2023-05-06T06:02:41.424Z,99857.41
2023-05-06T06:05:09.810Z,99853.84
2023-05-06T06:07:37.726Z,99847.28
2023-05-06T06:10:06.318Z,99851.19
2023-05-06T06:12:34.091Z,99856.34
2023-05-06T06:15:03.271Z,99859.63
2023-05-06T06:17:31.092Z,99864.16
2023-05-06T06:19:59.219Z,99870.75
2023-05-06T06:22:27.209Z,99857.78
2023-05-06T06:24:54.931Z,99867.47
2023-05-06T06:27:22.519Z,99863.50
2023-05-06T06:29:50.390Z,99872.38
2023-05-06T06:32:19.517Z,99871.78
2023-05-06T06:34:47.250Z,99873.13
2023-05-06T06:37:14.868Z,99871.81
2023-05-06T06:39:42.466Z,99872.59
2023-05-06T06:42:10.149Z,99870.38
2023-05-06T06:44:37.996Z,99873.72
2023-05-06T06:47:05.708Z,99879.81
2023-05-06T06:49:37.258Z,99879.84
2023-05-06T06:52:05.995Z,99877.47
2023-05-06T06:54:33.728Z,99879.28
2023-05-06T06:57:01.552Z,99876.44
2023-05-06T06:59:29.271Z,99880.66
2023-05-06T07:01:56.960Z,99876.28
2023-05-06T07:04:25.685Z,99871.13
2023-05-06T07:06:54.812Z,99875.25
2023-05-06T07:09:22.577Z,99879.53
2023-05-06T07:11:50.266Z,99883.03
2023-05-06T07:14:18.017Z,99875.75
2023-05-06T07:16:47.165Z,99869.34
2023-05-06T07:19:15.864Z,99869.03
2023-05-06T07:21:43.511Z,99869.16
2023-05-06T07:24:12.881Z,99872.75
2023-05-06T07:26:40.672Z,99877.53
2023-05-06T07:29:08.391Z,99867.59
2023-05-06T07:31:36.589Z,99866.47
2023-05-06T07:34:04.375Z,99869.75
2023-05-06T07:36:36.124Z,99865.66
2023-05-06T07:39:05.083Z,99869.94
2023-05-06T07:41:34.140Z,99871.81
2023-05-06T07:44:02.109Z,99870.66
2023-05-06T07:46:30.002Z,99865.50
2023-05-06T07:48:57.763Z,99868.09
2023-05-06T07:51:25.548Z,99876.31
2023-05-06T07:53:53.160Z,99872.19
2023-05-06T07:56:20.882Z,99880.00
2023-05-06T07:58:50.222Z,99879.41
2023-05-06T08:01:17.931Z,99881.81
2023-05-06T08:03:45.705Z,99880.06
2023-05-06T08:06:13.555Z,99879.47
2023-05-06T08:08:41.258Z,99882.84
2023-05-06T08:11:09.016Z,99886.75
2023-05-06T08:13:36.651Z,99882.19
2023-05-06T08:16:06.853Z,99873.16
2023-05-06T08:18:34.771Z,99878.50
2023-05-06T08:21:02.643Z,99883.06
2023-05-06T08:23:30.431Z,99883.16
2023-05-06T08:25:59.042Z,99888.63
2023-05-06T08:28:26.846Z,99883.75
2023-05-06T08:30:54.535Z,99887.69
2023-05-06T08:33:23.691Z,99877.81
2023-05-06T08:35:51.423Z,99877.84
2023-05-06T08:38:19.096Z,99884.03
2023-05-06T08:40:46.763Z,99891.81
2023-05-06T08:43:15.468Z,99883.16
2023-05-06T08:45:43.392Z,99894.53
2023-05-06T08:48:11.305Z,99888.94
2023-05-06T08:50:43.158Z,99891.09
2023-05-06T08:53:12.603Z,99892.00
2023-05-06T08:55:41.980Z,99890.09
2023-05-06T08:58:12.069Z,99902.28
2023-05-06T09:00:40.360Z,99891.97
2023-05-06T09:03:08.098Z,99887.91
2023-05-06T09:05:35.858Z,99883.34
2023-05-06T09:08:05.142Z,99881.31
2023-05-06T09:10:33.661Z,99892.81
2023-05-06T09:13:01.340Z,99893.53
2023-05-06T09:15:40.344Z,99897.53
2023-05-06T09:18:08.258Z,99888.72
2023-05-06T09:20:36.196Z,99899.03
2023-05-06T09:23:05.754Z,99891.16
2023-05-06T09:25:33.960Z,99892.31
2023-05-06T09:28:05.996Z,99889.28
2023-05-06T09:30:33.951Z,99894.16
2023-05-06T09:33:04.940Z,99883.66
2023-05-06T09:35:38.322Z,99885.56
2023-05-06T09:38:08.301Z,99876.81
2023-05-06T09:40:36.671Z,99879.06
2023-05-06T09:43:04.671Z,99879.72
2023-05-06T09:45:32.997Z,99879.91
2023-05-06T09:48:02.103Z,99876.09
2023-05-06T09:50:29.840Z,99868.69
2023-05-06T09:52:57.719Z,99876.91
2023-05-06T09:55:28.167Z,99871.88
2023-05-06T09:57:56.255Z,99867.19
2023-05-06T10:00:28.256Z,99865.22
2023-05-06T10:02:56.927Z,99857.44
2023-05-06T10:05:26.090Z,99854.09
2023-05-06T10:07:56.164Z,99859.38
2023-05-06T10:10:28.040Z,99852.44
2023-05-06T10:12:56.683Z,99852.63
2023-05-06T10:15:27.373Z,99847.47
2023-05-06T10:17:56.440Z,99853.66
2023-05-06T10:20:25.429Z,99857.06
2023-05-06T10:23:02.341Z,99851.72
2023-05-06T10:25:39.615Z,99845.19
2023-05-06T10:28:11.154Z,99848.41
2023-05-06T10:30:48.506Z,99842.56
2023-05-06T10:33:17.082Z,99836.44
2023-05-06T10:35:54.275Z,99838.41
2023-05-06T10:38:25.960Z,99835.00
2023-05-06T10:40:56.105Z,99832.91
2023-05-06T10:43:25.674Z,99829.13
2023-05-06T10:46:01.440Z,99830.25
2023-05-06T10:48:29.353Z,99823.91
2023-05-06T10:51:31.544Z,99819.41
2023-05-06T10:54:02.312Z,99812.09
2023-05-06T10:56:33.164Z,99808.28
2023-05-06T10:59:08.080Z,99799.94
2023-05-06T11:01:36.434Z,99804.19
2023-05-06T11:04:09.500Z,99805.50
2023-05-06T11:06:41.089Z,99799.59
2023-05-06T11:09:17.283Z,99800.28
2023-05-06T11:11:54.722Z,99792.75
2023-05-06T11:14:30.154Z,99799.91
2023-05-06T11:16:59.181Z,99795.34
2023-05-06T11:19:28.556Z,99790.91
2023-05-06T11:21:58.201Z,99794.63
2023-05-06T11:24:28.541Z,99795.41
2023-05-06T11:26:58.792Z,99790.19
2023-05-06T11:29:27.732Z,99798.22
2023-05-06T11:31:55.452Z,99793.22
2023-05-06T11:34:25.925Z,99803.28
2023-05-06T11:36:58.593Z,99806.22
2023-05-06T11:39:30.306Z,99795.88
2023-05-06T11:42:03.859Z,99794.22
2023-05-06T11:44:33.398Z,99800.91
2023-05-06T11:47:03.073Z,99793.63
2023-05-06T11:49:31.490Z,99795.94
2023-05-06T11:51:59.173Z,99789.13
2023-05-06T11:54:28.153Z,99798.06
2023-05-06T11:56:57.280Z,99796.13
2023-05-06T11:59:31.544Z,99786.41
2023-05-06T12:02:01.155Z,99789.31
2023-05-06T12:04:29.107Z,99786.91
2023-05-06T12:06:57.411Z,99794.00
2023-05-06T12:09:25.969Z,99787.38
2023-05-06T12:11:54.957Z,99794.09
2023-05-06T12:14:23.012Z,99784.31
2023-05-06T12:16:54.097Z,99786.28
2023-05-06T12:19:23.803Z,99789.31
2023-05-06T12:21:51.440Z,99788.38
2023-05-06T12:24:28.086Z,99789.09
2023-05-06T12:26:56.110Z,99783.78
2023-05-06T12:29:23.849Z,99780.72
2023-05-06T12:32:08.928Z,99779.91
2023-05-06T12:34:40.467Z,99784.47
2023-05-06T12:37:09.371Z,99775.66
2023-05-06T12:39:38.620Z,99773.81
2023-05-06T12:42:07.292Z,99764.03
2023-05-06T12:44:37.394Z,99762.91
2023-05-06T12:47:08.428Z,99760.91
2023-05-06T12:49:49.952Z,99756.38
2023-05-06T12:52:18.541Z,99758.75
2023-05-06T12:54:46.853Z,99751.44
2023-05-06T12:57:15.251Z,99749.44
2023-05-06T12:59:44.536Z,99758.03
2023-05-06T13:02:14.335Z,99745.59
2023-05-06T13:04:42.532Z,99752.47
2023-05-06T13:07:10.249Z,99749.59
2023-05-06T13:09:37.916Z,99746.75
2023-05-06T13:12:06.283Z,99736.38
2023-05-06T13:14:34.070Z,99745.66
2023-05-06T13:17:04.655Z,99734.41
2023-05-06T13:19:33.983Z,99729.78
2023-05-06T13:22:02.167Z,99730.63
2023-05-06T13:24:29.905Z,99720.22
2023-05-06T13:26:59.381Z,99723.28
2023-05-06T13:29:27.642Z,99716.59
2023-05-06T13:31:56.434Z,99716.03
2023-05-06T13:34:24.192Z,99708.94
2023-05-06T13:36:54.842Z,99704.16
2023-05-06T13:39:22.659Z,99701.22
2023-05-06T13:41:51.081Z,99700.41
2023-05-06T13:44:19.080Z,99694.69
2023-05-06T13:46:47.201Z,99694.63
2023-05-06T13:49:15.978Z,99695.44
2023-05-06T13:51:43.893Z,99701.06
2023-05-06T13:54:13.007Z,99696.81
2023-05-06T13:56:40.969Z,99696.91
2023-05-06T13:59:10.004Z,99688.13
2023-05-06T14:01:38.246Z,99693.34
2023-05-06T14:04:06.349Z,99692.50
2023-05-06T14:06:34.031Z,99680.81
2023-05-06T14:09:01.761Z,99683.47
2023-05-06T14:11:30.987Z,99684.63
2023-05-06T14:13:58.721Z,99681.09
2023-05-06T14:16:26.377Z,99678.06
2023-05-06T14:18:54.178Z,99672.38
2023-05-06T14:21:22.245Z,99669.13
2023-05-06T14:23:49.872Z,99663.47
2023-05-06T14:26:17.533Z,99663.13
2023-05-06T14:28:46.551Z,99658.03
2023-05-06T14:31:14.278Z,99657.69
2023-05-06T14:33:42.317Z,99657.91
2023-05-06T14:36:10.490Z,99654.44
2023-05-06T14:38:38.434Z,99648.78
2023-05-06T14:41:06.522Z,99647.16
2023-05-06T14:43:34.564Z,99655.31
2023-05-06T14:46:03.671Z,99646.59
2023-05-06T14:48:31.946Z,99643.59
2023-05-06T14:51:00.818Z,99648.97
2023-05-06T14:53:28.490Z,99637.44
2023-05-06T14:55:56.381Z,99637.81
2023-05-06T14:58:24.437Z,99640.25
2023-05-06T15:00:52.356Z,99642.50
2023-05-06T15:03:21.684Z,99635.41
2023-05-06T15:05:50.717Z,99636.44
2023-05-06T15:08:18.502Z,99639.53
2023-05-06T15:10:46.167Z,99634.53
2023-05-06T15:13:13.868Z,99629.91
2023-05-06T15:15:41.675Z,99640.66
2023-05-06T15:18:09.545Z,99634.06
2023-05-06T15:20:38.847Z,99640.09
2023-05-06T15:23:06.559Z,99633.63
2023-05-06T15:25:36.087Z,99642.25
2023-05-06T15:28:05.558Z,99638.78
2023-05-06T15:30:33.392Z,99638.69
2023-05-06T15:33:02.697Z,99638.03
2023-05-06T15:35:31.628Z,99643.88
2023-05-06T15:38:00.680Z,99642.16
2023-05-06T15:40:28.467Z,99642.13
2023-05-06T15:42:56.784Z,99630.75
2023-05-06T15:45:24.630Z,99636.38
2023-05-06T15:47:52.706Z,99642.00
2023-05-06T15:50:32.756Z,99641.28
2023-05-06T15:53:03.130Z,99642.59
2023-05-06T15:55:35.116Z,99637.00
2023-05-06T15:58:09.053Z,99637.66
2023-05-06T16:00:36.676Z,99635.63
2023-05-06T16:03:04.439Z,99633.41
2023-05-06T16:05:32.785Z,99633.88
2023-05-06T16:08:01.924Z,99630.69
2023-05-06T16:10:29.549Z,99625.97
2023-05-06T16:12:57.336Z,99629.34
2023-05-06T16:15:25.091Z,99621.75
2023-05-06T16:17:53.111Z,99622.66
2023-05-06T16:20:20.893Z,99625.31
2023-05-06T16:22:50.942Z,99621.59
2023-05-06T16:25:20.124Z,99612.56
2023-05-06T16:27:47.892Z,99621.03
2023-05-06T16:30:15.940Z,99612.63
2023-05-06T16:32:43.830Z,99619.94
2023-05-06T16:35:11.676Z,99619.06
2023-05-06T16:37:39.389Z,99618.84
2023-05-06T16:40:09.556Z,99618.56
2023-05-06T16:42:39.285Z,99610.59
2023-05-06T16:45:08.456Z,99607.03
2023-05-06T16:47:36.491Z,99607.66
2023-05-06T16:50:06.552Z,99611.78
2023-05-06T16:52:34.288Z,99612.50
2023-05-06T16:55:01.970Z,99607.75
2023-05-06T16:57:29.868Z,99607.59
2023-05-06T16:59:59.162Z,99609.44
2023-05-06T17:02:27.022Z,99606.53
2023-05-06T17:04:54.916Z,99601.28
2023-05-06T17:07:22.554Z,99601.59
2023-05-06T17:09:50.389Z,99603.03
2023-05-06T17:12:18.015Z,99604.25
2023-05-06T17:14:45.718Z,99603.41
2023-05-06T17:17:14.763Z,99603.00
2023-05-06T17:19:42.513Z,99598.16
2023-05-06T17:22:10.946Z,99605.00
2023-05-06T17:24:38.642Z,99603.47
2023-05-06T17:27:06.349Z,99603.34
2023-05-06T17:29:34.038Z,99605.56
2023-05-06T17:32:01.805Z,99605.91
2023-05-06T17:34:31.871Z,99607.94
2023-05-06T17:37:01.112Z,99604.25
2023-05-06T17:39:30.851Z,99598.34
2023-05-06T17:41:58.478Z,99603.50
2023-05-06T17:44:26.455Z,99602.81
2023-05-06T17:46:54.477Z,99599.25
2023-05-06T17:49:22.271Z,99603.41
2023-05-06T17:51:51.312Z,99601.59
2023-05-06T17:54:19.087Z,99591.28
2023-05-06T17:56:50.381Z,99604.59
2023-05-06T17:59:19.766Z,99600.03
2023-05-06T18:01:48.192Z,99600.38
2023-05-06T18:04:16.315Z,99597.44
2023-05-06T18:06:45.250Z,99603.56
2023-05-06T18:09:14.873Z,99602.59
2023-05-06T18:11:42.539Z,99610.59
2023-05-06T18:14:10.228Z,99602.41
2023-05-06T18:16:38.466Z,99600.13
2023-05-06T18:19:06.190Z,99604.81
2023-05-06T18:21:36.000Z,99608.28
2023-05-06T18:24:15.319Z,99612.41
2023-05-06T18:26:46.326Z,99614.03
2023-05-06T18:29:14.326Z,99610.59
2023-05-06T18:31:42.424Z,99610.53
2023-05-06T18:34:10.573Z,99612.97
2023-05-06T18:36:38.387Z,99619.53
2023-05-06T18:39:06.152Z,99614.63
2023-05-06T18:41:34.111Z,99604.66
2023-05-06T18:44:05.081Z,99617.59
2023-05-06T18:46:33.753Z,99617.19
2023-05-06T18:49:01.914Z,99623.59
2023-05-06T18:51:30.005Z,99620.47
2023-05-06T18:53:58.048Z,99616.84
2023-05-06T18:56:26.056Z,99622.06
2023-05-06T18:58:54.060Z,99622.50
2023-05-06T19:01:23.287Z,99626.03
2023-05-06T19:03:51.828Z,99631.97
2023-05-06T19:06:19.948Z,99636.34
2023-05-06T19:08:47.681Z,99639.59
2023-05-06T19:11:16.687Z,99644.25
2023-05-06T19:13:45.018Z,99648.56
2023-05-06T19:16:13.101Z,99651.63
2023-05-06T19:18:42.406Z,99649.09
2023-05-06T19:21:11.114Z,99654.03
2023-05-06T19:23:39.110Z,99658.41
2023-05-06T19:26:07.146Z,99648.38
2023-05-06T19:28:35.331Z,99656.16
2023-05-06T19:31:09.436Z,99655.44
2023-05-06T19:33:37.558Z,99659.78
2023-05-06T19:36:08.106Z,99657.81
2023-05-06T19:38:36.146Z,99656.16
2023-05-06T19:41:04.369Z,99664.06
2023-05-06T19:43:32.334Z,99663.03
2023-05-06T19:46:00.190Z,99663.03
2023-05-06T19:48:28.012Z,99668.47
2023-05-06T19:50:55.755Z,99660.94
2023-05-06T19:53:25.563Z,99658.47
2023-05-06T19:55:55.991Z,99662.84
2023-05-06T19:58:24.246Z,99664.56
2023-05-06T20:00:52.120Z,99662.66
2023-05-06T20:03:20.166Z,99668.03
2023-05-06T20:05:47.952Z,99661.06
2023-05-06T20:08:15.734Z,99664.41
2023-05-06T20:10:44.854Z,99670.19
2023-05-06T20:13:12.820Z,99665.06
2023-05-06T20:15:41.541Z,99661.38
2023-05-06T20:18:09.518Z,99663.25
2023-05-06T20:20:37.859Z,99661.22
2023-05-06T20:23:05.984Z,99662.47
2023-05-06T20:25:36.323Z,99662.06
2023-05-06T20:28:08.766Z,99674.25
2023-05-06T20:30:37.726Z,99667.66
2023-05-06T20:33:05.645Z,99672.59
2023-05-06T20:35:38.137Z,99671.59
2023-05-06T20:38:06.667Z,99675.91
2023-05-06T20:40:35.743Z,99676.09
2023-05-06T20:43:07.637Z,99678.78
2023-05-06T20:45:38.532Z,99666.47
2023-05-06T20:48:07.188Z,99681.88
2023-05-06T20:50:35.166Z,99680.84
2023-05-06T20:53:03.048Z,99679.25
2023-05-06T20:55:31.028Z,99684.97
2023-05-06T20:57:58.962Z,99685.78
2023-05-06T21:00:28.989Z,99681.28
2023-05-06T21:02:57.474Z,99680.88
2023-05-06T21:05:26.082Z,99684.78
2023-05-06T21:07:53.899Z,99682.06
2023-05-06T21:10:21.722Z,99684.97
2023-05-06T21:12:51.136Z,99681.28
2023-05-06T21:15:19.991Z,99684.53
2023-05-06T21:17:50.178Z,99677.53
2023-05-06T21:20:19.386Z,99683.06
2023-05-06T21:22:47.124Z,99676.69
2023-05-06T21:25:14.877Z,99684.69
2023-05-06T21:27:42.735Z,99678.31
2023-05-06T21:30:11.221Z,99683.84
2023-05-06T21:32:39.125Z,99685.25
2023-05-06T21:35:09.513Z,99690.00
2023-05-06T21:37:37.386Z,99679.75
2023-05-06T21:40:06.120Z,99688.50
2023-05-06T21:42:34.053Z,99688.13
2023-05-06T21:45:01.888Z,99674.97
2023-05-06T21:47:29.722Z,99677.81
2023-05-06T21:49:57.663Z,99672.66
2023-05-06T21:52:26.897Z,99669.59
2023-05-06T21:54:54.750Z,99672.88
2023-05-06T21:57:22.469Z,99665.69
2023-05-06T21:59:50.399Z,99667.56
2023-05-06T22:02:18.123Z,99666.94
2023-05-06T22:04:46.301Z,99670.78
2023-05-06T22:07:14.116Z,99666.06
2023-05-06T22:09:43.433Z,99661.75
2023-05-06T22:12:12.644Z,99656.78
2023-05-06T22:14:41.461Z,99655.53
2023-05-06T22:17:10.589Z,99657.41
2023-05-06T22:19:38.597Z,99655.53
2023-05-06T22:22:06.943Z,99657.56
2023-05-06T22:24:34.910Z,99653.50
2023-05-06T22:27:04.271Z,99662.53
2023-05-06T22:29:34.821Z,99658.59
2023-05-06T22:32:02.658Z,99664.59
2023-05-06T22:34:30.389Z,99650.81
2023-05-06T22:37:00.455Z,99663.22
2023-05-06T22:39:28.823Z,99667.72
2023-05-06T22:41:57.156Z,99667.25
2023-05-06T22:44:26.173Z,99673.00
2023-05-06T22:46:54.851Z,99670.03
2023-05-06T22:49:23.395Z,99673.56
2023-05-06T22:51:51.158Z,99670.13
2023-05-06T22:54:19.329Z,99663.59
2023-05-06T22:56:47.080Z,99674.16
2023-05-06T22:59:14.772Z,99670.66
2023-05-06T23:01:43.882Z,99679.28
2023-05-06T23:04:11.914Z,99673.78
2023-05-06T23:06:40.226Z,99685.31
2023-05-06T23:09:07.963Z,99687.84
2023-05-06T23:11:35.765Z,99685.72
2023-05-06T23:14:04.049Z,99684.06
2023-05-06T23:16:31.791Z,99675.94
2023-05-06T23:19:00.818Z,99687.78
2023-05-06T23:21:28.514Z,99690.88
2023-05-06T23:23:56.576Z,99691.88
2023-05-06T23:26:24.577Z,99691.47
2023-05-06T23:28:52.396Z,99690.25
2023-05-06T23:31:20.131Z,99690.50
2023-05-06T23:33:47.856Z,99691.31
2023-05-06T23:36:17.018Z,99692.09
2023-05-06T23:38:44.808Z,99694.13
2023-05-06T23:41:13.119Z,99692.91
2023-05-06T23:43:40.867Z,99689.03
2023-05-06T23:46:08.805Z,99687.72
2023-05-06T23:48:38.170Z,99682.59
2023-05-06T23:51:06.057Z,99687.16
2023-05-06T23:53:36.070Z,99685.41
2023-05-06T23:56:04.361Z,99677.41
2023-05-06T23:58:32.303Z,99683.84
